createdAt,value
2022-12-15T00:00:48.423Z,79.60
2022-12-15T00:03:46.486Z,69.60
2022-12-15T00:06:32.961Z,65.10
2022-12-15T00:09:20.731Z,64.10
2022-12-15T00:12:08.053Z,65.40
2022-12-15T00:14:55.035Z,76.60
2022-12-15T00:17:41.875Z,78.10
2022-12-15T00:20:29.422Z,72.60
2022-12-15T00:23:16.939Z,73.00
2022-12-15T00:26:03.851Z,71.40
2022-12-15T00:28:50.150Z,79.50
2022-12-15T00:31:36.978Z,77.00
2022-12-15T00:34:23.738Z,73.50
2022-12-15T00:37:10.487Z,79.70
2022-12-15T00:39:40.345Z,79.50
2022-12-15T00:42:09.904Z,81.80
2022-12-15T00:44:38.087Z,80.60
2022-12-15T00:47:06.653Z,71.50
2022-12-15T00:50:13.702Z,70.40
2022-12-15T00:53:00.671Z,63.50
2022-12-15T00:55:47.313Z,73.10
2022-12-15T00:58:34.140Z,64.70
2022-12-15T01:01:28.730Z,60.40
2022-12-15T01:04:15.685Z,71.90
2022-12-15T01:07:02.953Z,69.20
2022-12-15T01:09:49.377Z,67.00
2022-12-15T01:12:36.638Z,62.20
2022-12-15T01:15:23.963Z,59.50
2022-12-15T01:18:11.128Z,57.90
2022-12-15T01:20:39.702Z,57.10
2022-12-15T01:23:07.882Z,56.80
2022-12-15T01:25:39.561Z,60.10
2022-12-15T01:28:07.707Z,63.90
2022-12-15T01:30:35.850Z,71.60
2022-12-15T01:33:04.019Z,67.00
2022-12-15T01:35:32.363Z,68.60
2022-12-15T01:38:00.760Z,66.60
2022-12-15T01:40:50.223Z,70.40
2022-12-15T01:43:22.580Z,61.20
2022-12-15T01:45:54.081Z,63.90
2022-12-15T01:48:30.628Z,78.50
2022-12-15T01:51:17.229Z,68.20
2022-12-15T01:53:54.807Z,73.20
2022-12-15T01:56:26.385Z,71.90
2022-12-15T01:59:00.473Z,65.10
2022-12-15T02:01:29.757Z,69.80
2022-12-15T02:03:58.079Z,69.70
2022-12-15T02:06:27.242Z,74.50
2022-12-15T02:08:58.814Z,65.80
2022-12-15T02:11:37.518Z,68.10
2022-12-15T02:14:11.510Z,71.90
2022-12-15T02:17:15.208Z,74.80
2022-12-15T02:22:32.674Z,62.60
2022-12-15T02:25:16.090Z,67.00
2022-12-15T02:28:25.798Z,65.60
2022-12-15T02:31:22.099Z,60.90
2022-12-15T02:34:01.822Z,67.90
2022-12-15T02:36:45.549Z,60.50
2022-12-15T02:39:14.409Z,52.60
2022-12-15T02:41:46.301Z,63.90
2022-12-15T02:44:23.234Z,68.40
2022-12-15T02:47:16.070Z,70.10
2022-12-15T02:50:05.731Z,54.90
2022-12-15T02:52:46.061Z,67.40
2022-12-15T02:55:17.270Z,70.80
2022-12-15T02:57:53.942Z,67.10
2022-12-15T03:00:23.109Z,70.90
2022-12-15T03:02:54.369Z,67.70
2022-12-15T03:05:25.050Z,71.80
2022-12-15T03:07:54.957Z,71.60
2022-12-15T03:10:25.556Z,72.60
2022-12-15T03:12:55.085Z,71.90
2022-12-15T03:15:23.771Z,77.70
2022-12-15T03:17:52.612Z,76.80
2022-12-15T03:20:20.956Z,72.00
2022-12-15T03:22:49.137Z,56.80
2022-12-15T03:25:17.358Z,74.80
2022-12-15T03:27:46.532Z,77.70
2022-12-15T03:30:15.155Z,70.60
2022-12-15T03:32:43.373Z,75.90
2022-12-15T03:35:13.096Z,74.40
2022-12-15T03:37:43.036Z,75.20
2022-12-15T03:40:14.095Z,71.00
2022-12-15T03:42:48.953Z,76.00
2022-12-15T03:45:20.948Z,75.00
2022-12-15T03:47:50.704Z,80.00
2022-12-15T03:50:21.455Z,77.40
2022-12-15T03:52:55.221Z,83.60
2022-12-15T03:55:24.345Z,77.70
2022-12-15T03:57:52.705Z,80.90
2022-12-15T04:00:22.066Z,79.40
2022-12-15T04:02:52.224Z,83.80
2022-12-15T04:05:32.398Z,107.10
2022-12-15T04:08:01.690Z,89.60
2022-12-15T04:10:34.760Z,87.80
2022-12-15T04:13:11.376Z,92.60
2022-12-15T04:15:40.861Z,85.30
2022-12-15T04:18:11.046Z,85.10
2022-12-15T04:20:40.479Z,96.20
2022-12-15T04:23:08.898Z,92.20
2022-12-15T04:25:55.810Z,92.10
2022-12-15T04:28:42.465Z,81.40
2022-12-15T04:31:32.051Z,93.20
2022-12-15T04:34:22.887Z,96.00
2022-12-15T04:37:12.148Z,96.00
2022-12-15T04:40:06.124Z,104.10
2022-12-15T04:42:54.504Z,112.10
2022-12-15T04:45:43.645Z,122.80
2022-12-15T04:48:30.381Z,150.40
2022-12-15T04:51:17.620Z,141.00
2022-12-15T04:54:04.609Z,139.10
2022-12-15T04:56:54.068Z,156.10
2022-12-15T04:59:40.893Z,149.50
2022-12-15T05:02:27.709Z,155.50
2022-12-15T05:05:14.285Z,150.00
2022-12-15T05:08:01.213Z,143.10
2022-12-15T05:10:47.926Z,134.70
2022-12-15T05:13:35.070Z,126.60
2022-12-15T05:16:23.439Z,95.10
2022-12-15T05:19:10.202Z,114.20
2022-12-15T05:21:56.714Z,110.40
2022-12-15T05:24:43.623Z,120.10
2022-12-15T05:27:30.471Z,133.00
2022-12-15T05:30:17.141Z,143.90
2022-12-15T05:32:45.301Z,160.40
2022-12-15T05:35:13.700Z,143.70
2022-12-15T05:37:41.859Z,138.40
2022-12-15T05:40:10.571Z,143.70
2022-12-15T05:42:38.710Z,147.10
2022-12-15T05:45:07.337Z,166.90
2022-12-15T05:47:36.038Z,167.10
2022-12-15T05:50:04.493Z,167.60
2022-12-15T05:52:32.830Z,198.50
2022-12-15T05:55:01.049Z,185.10
2022-12-15T05:57:29.257Z,163.40
2022-12-15T05:59:57.457Z,178.00
2022-12-15T06:02:25.766Z,192.50
2022-12-15T06:04:54.262Z,196.90
2022-12-15T06:07:22.777Z,173.20
2022-12-15T06:09:50.908Z,162.20
2022-12-15T06:12:19.115Z,148.00
2022-12-15T06:14:47.394Z,138.10
2022-12-15T06:17:18.163Z,128.80
2022-12-15T06:19:46.569Z,133.80
2022-12-15T06:22:14.917Z,150.60
2022-12-15T06:24:43.092Z,129.90
2022-12-15T06:27:11.388Z,149.30
2022-12-15T06:29:39.592Z,149.20
2022-12-15T06:32:07.820Z,142.10
2022-12-15T06:34:36.033Z,149.30
2022-12-15T06:37:04.697Z,142.30
2022-12-15T06:39:32.885Z,137.60
2022-12-15T06:42:01.065Z,154.20
2022-12-15T06:44:29.389Z,156.80
2022-12-15T06:46:57.793Z,157.00
2022-12-15T06:49:25.989Z,173.20
2022-12-15T06:51:54.118Z,180.00
2022-12-15T06:54:22.461Z,207.50
2022-12-15T06:56:50.887Z,219.40
2022-12-15T06:59:19.130Z,170.20
2022-12-15T07:01:47.716Z,185.40
2022-12-15T07:04:16.085Z,164.00
2022-12-15T07:06:45.444Z,188.80
2022-12-15T07:09:17.219Z,193.40
2022-12-15T07:11:49.380Z,204.30
2022-12-15T07:14:17.724Z,187.10
2022-12-15T07:16:46.328Z,189.80
2022-12-15T07:19:14.659Z,197.00
2022-12-15T07:21:42.996Z,189.20
2022-12-15T07:24:13.145Z,176.10
2022-12-15T07:26:41.865Z,207.40
2022-12-15T07:29:10.450Z,179.10
2022-12-15T07:31:38.954Z,193.30
2022-12-15T07:34:07.407Z,192.80
2022-12-15T07:36:35.639Z,171.40
2022-12-15T07:39:05.139Z,181.50
2022-12-15T07:41:35.655Z,189.50
2022-12-15T07:44:04.312Z,186.90
2022-12-15T07:46:32.971Z,159.50
2022-12-15T07:49:01.282Z,176.70
2022-12-15T07:51:29.824Z,178.70
2022-12-15T07:53:58.166Z,190.60
2022-12-15T07:56:26.455Z,191.00
2022-12-15T07:58:54.691Z,206.10
2022-12-15T08:01:23.007Z,211.90
2022-12-15T08:03:51.437Z,198.70
2022-12-15T08:06:19.819Z,214.30
2022-12-15T08:08:50.609Z,210.70
2022-12-15T08:11:22.839Z,233.70
2022-12-15T08:16:40.192Z,225.40
2022-12-15T08:19:13.079Z,189.30
2022-12-15T08:21:43.017Z,201.00
2022-12-15T08:24:12.058Z,193.20
2022-12-15T08:26:42.501Z,149.90
2022-12-15T08:32:02.168Z,143.00
2022-12-15T08:34:31.132Z,172.50
2022-12-15T08:36:59.560Z,154.30
2022-12-15T08:39:28.031Z,133.60
2022-12-15T08:41:56.483Z,157.10
2022-12-15T08:44:25.075Z,156.90
2022-12-15T08:46:53.757Z,160.60
2022-12-15T08:49:22.679Z,153.80
2022-12-15T08:51:51.604Z,152.10
2022-12-15T08:54:20.906Z,146.00
2022-12-15T08:56:50.125Z,125.60
2022-12-15T08:59:19.556Z,160.30
2022-12-15T09:01:48.598Z,125.20
2022-12-15T09:04:17.967Z,136.10
2022-12-15T09:06:50.710Z,117.20
2022-12-15T09:11:49.295Z,129.30
2022-12-15T09:14:25.517Z,130.20
2022-12-15T09:16:55.735Z,115.00
2022-12-15T09:19:24.092Z,137.50
2022-12-15T09:21:52.371Z,128.40
2022-12-15T09:24:32.230Z,143.40
2022-12-15T09:27:03.561Z,150.10
2022-12-15T09:29:32.543Z,132.80
2022-12-15T09:32:01.185Z,148.00
2022-12-15T09:34:30.193Z,169.20
2022-12-15T09:36:58.689Z,138.10
2022-12-15T09:39:27.455Z,120.80
2022-12-15T09:41:59.373Z,142.20
2022-12-15T09:44:32.223Z,146.80
2022-12-15T09:47:30.710Z,124.40
2022-12-15T09:50:03.304Z,156.00
2022-12-15T09:52:42.677Z,134.40
2022-12-15T09:55:23.385Z,159.40
2022-12-15T09:57:56.269Z,168.60
2022-12-15T10:03:16.441Z,147.80
2022-12-15T10:06:07.299Z,147.10
2022-12-15T10:08:36.979Z,150.40
2022-12-15T10:11:13.996Z,149.20
2022-12-15T10:13:58.682Z,145.00
2022-12-15T10:16:50.263Z,149.20
2022-12-15T10:19:31.297Z,124.40
2022-12-15T10:22:00.321Z,150.70
2022-12-15T10:27:50.871Z,113.10
2022-12-15T10:30:19.888Z,92.70
2022-12-15T10:32:57.998Z,151.70
2022-12-15T10:35:31.089Z,112.60
2022-12-15T10:38:03.874Z,110.40
2022-12-15T10:40:52.383Z,142.80
2022-12-15T10:43:27.658Z,133.30
2022-12-15T10:46:13.775Z,154.30
2022-12-15T10:48:44.631Z,150.00
2022-12-15T10:51:22.080Z,130.50
2022-12-15T10:54:04.755Z,146.70
2022-12-15T10:56:34.777Z,125.10
2022-12-15T10:59:22.814Z,120.00
2022-12-15T11:01:52.365Z,124.10
2022-12-15T11:04:34.184Z,108.90
2022-12-15T11:07:04.266Z,111.50
2022-12-15T11:09:38.736Z,111.60
2022-12-15T11:12:50.518Z,134.40
2022-12-15T11:15:31.349Z,138.00
2022-12-15T11:18:11.401Z,130.30
2022-12-15T11:20:50.782Z,118.10
2022-12-15T11:23:28.092Z,124.00
2022-12-15T11:26:22.630Z,121.60
2022-12-15T11:29:00.029Z,113.90
2022-12-15T11:31:38.542Z,107.60
2022-12-15T11:34:17.817Z,106.30
2022-12-15T11:37:07.461Z,107.70
2022-12-15T11:39:49.650Z,117.40
2022-12-15T11:42:45.064Z,94.70
2022-12-15T11:45:22.736Z,106.40
2022-12-15T11:47:56.482Z,104.80
2022-12-15T11:51:06.607Z,120.10
2022-12-15T11:53:59.516Z,121.20
2022-12-15T11:56:33.935Z,127.30
2022-12-15T11:59:20.829Z,133.80
2022-12-15T12:02:03.055Z,134.40
2022-12-15T12:08:16.269Z,126.70
2022-12-15T12:10:47.912Z,93.40
2022-12-15T12:13:35.601Z,112.10
2022-12-15T12:16:35.516Z,122.30
2022-12-15T12:19:03.827Z,115.80
2022-12-15T12:21:40.032Z,121.10
2022-12-15T12:24:11.273Z,106.80
2022-12-15T12:26:51.154Z,95.90
2022-12-15T12:29:34.518Z,105.30
2022-12-15T12:32:40.166Z,95.00
2022-12-15T12:35:33.212Z,110.70
2022-12-15T12:41:06.297Z,92.30
2022-12-15T12:43:40.405Z,109.30
2022-12-15T12:46:20.470Z,107.70
2022-12-15T12:49:03.732Z,118.80
2022-12-15T12:54:02.410Z,102.30
2022-12-15T12:56:39.424Z,113.00
2022-12-15T12:59:30.864Z,113.00
2022-12-15T13:02:14.669Z,111.60
2022-12-15T13:04:50.116Z,116.70
2022-12-15T13:07:36.724Z,107.80
2022-12-15T13:10:07.845Z,111.00
2022-12-15T13:13:15.853Z,109.40
2022-12-15T13:15:50.929Z,120.10
2022-12-15T13:18:25.348Z,128.10
2022-12-15T13:20:57.741Z,125.70
2022-12-15T13:23:27.777Z,116.80
2022-12-15T13:25:59.182Z,111.10
2022-12-15T13:28:38.448Z,129.40
2022-12-15T13:31:21.877Z,124.00
2022-12-15T13:33:50.892Z,114.60
2022-12-15T13:36:37.630Z,115.30
2022-12-15T13:39:12.627Z,131.50
2022-12-15T13:42:00.324Z,128.80
2022-12-15T13:44:35.552Z,132.70
2022-12-15T13:47:13.754Z,138.50
2022-12-15T13:50:01.368Z,151.00
2022-12-15T13:55:40.749Z,125.30
2022-12-15T13:58:09.530Z,121.20
2022-12-15T14:00:48.715Z,114.10
2022-12-15T14:03:20.307Z,129.40
2022-12-15T14:05:55.527Z,131.10
2022-12-15T14:08:27.119Z,127.10
2022-12-15T14:10:58.928Z,132.50
2022-12-15T14:13:35.686Z,155.70
2022-12-15T14:16:07.807Z,146.50
2022-12-15T14:19:04.267Z,127.70
2022-12-15T14:21:32.692Z,153.30
2022-12-15T14:26:50.823Z,142.30
2022-12-15T14:29:20.372Z,144.50
2022-12-15T14:31:53.649Z,166.10
2022-12-15T14:34:27.301Z,119.20
2022-12-15T14:36:59.427Z,154.10
2022-12-15T14:39:40.695Z,144.10
2022-12-15T14:42:19.367Z,150.90
2022-12-15T14:44:50.868Z,144.70
2022-12-15T14:47:28.727Z,151.10
2022-12-15T14:50:01.347Z,154.70
2022-12-15T14:52:35.178Z,144.80
2022-12-15T14:55:35.197Z,131.40
2022-12-15T14:58:36.398Z,157.10
2022-12-15T15:01:25.464Z,154.60
2022-12-15T15:03:10.972Z,106.70
2022-12-15T15:03:14.310Z,151.70
2022-12-15T15:04:02.480Z,156.10
2022-12-15T15:06:40.491Z,156.50
2022-12-15T15:09:19.211Z,155.00
2022-12-15T15:11:50.461Z,120.50
2022-12-15T15:14:24.005Z,130.40
2022-12-15T15:17:22.940Z,132.80
2022-12-15T15:20:04.040Z,130.50
2022-12-15T15:23:08.003Z,145.00
2022-12-15T15:25:48.909Z,131.00
2022-12-15T15:28:20.242Z,124.40
2022-12-15T15:30:59.537Z,91.50
2022-12-15T15:33:28.668Z,133.10
2022-12-15T15:36:01.881Z,137.90
2022-12-15T15:38:38.319Z,134.90
2022-12-15T15:41:16.457Z,120.60
2022-12-15T15:43:46.096Z,140.60
2022-12-15T15:46:18.450Z,129.10
2022-12-15T15:49:01.205Z,140.90
2022-12-15T15:51:32.396Z,133.80
2022-12-15T15:54:11.849Z,135.30
2022-12-15T15:56:41.765Z,143.90
2022-12-15T15:59:16.533Z,136.30
2022-12-15T16:01:47.351Z,160.90
2022-12-15T16:04:16.293Z,149.60
2022-12-15T16:06:47.519Z,143.80
2022-12-15T16:09:17.107Z,127.60
2022-12-15T16:11:46.783Z,133.50
2022-12-15T16:14:17.773Z,125.70
2022-12-15T16:16:46.672Z,123.70
2022-12-15T16:19:15.328Z,140.90
2022-12-15T16:21:44.003Z,133.20
2022-12-15T16:24:18.937Z,132.20
2022-12-15T16:26:50.575Z,141.80
2022-12-15T16:29:20.956Z,138.40
2022-12-15T16:31:49.770Z,133.40
2022-12-15T16:34:20.699Z,136.90
2022-12-15T16:36:49.635Z,119.40
2022-12-15T16:39:32.069Z,136.70
2022-12-15T16:42:00.989Z,134.90
2022-12-15T16:44:30.076Z,96.40
2022-12-15T16:46:59.707Z,132.80
2022-12-15T16:49:33.858Z,117.60
2022-12-15T16:52:06.644Z,125.30
2022-12-15T16:54:35.180Z,100.40
2022-12-15T16:57:05.748Z,123.80
2022-12-15T16:59:37.255Z,129.40
2022-12-15T17:02:28.230Z,142.40
2022-12-15T17:04:57.081Z,113.50
2022-12-15T17:07:27.892Z,126.80
2022-12-15T17:09:56.908Z,101.80
2022-12-15T17:12:25.872Z,124.30
2022-12-15T17:14:54.523Z,117.30
2022-12-15T17:17:22.911Z,108.50
2022-12-15T17:20:27.568Z,119.20
2022-12-15T17:22:40.790Z,114.90
2022-12-15T17:25:53.970Z,113.40
2022-12-15T17:28:40.933Z,100.10
2022-12-15T17:31:18.722Z,114.60
2022-12-15T17:33:48.215Z,119.40
2022-12-15T17:36:22.744Z,121.60
2022-12-15T17:39:02.019Z,131.00
2022-12-15T17:41:59.869Z,129.60
2022-12-15T17:44:32.936Z,108.70
2022-12-15T17:47:04.756Z,124.20
2022-12-15T17:49:36.382Z,133.20
2022-12-15T17:52:18.146Z,130.40
2022-12-15T17:54:46.603Z,119.50
2022-12-15T17:57:15.303Z,119.30
2022-12-15T17:59:43.796Z,120.60
2022-12-15T18:02:13.869Z,133.90
2022-12-15T18:04:43.223Z,132.20
2022-12-15T18:07:16.979Z,110.90
2022-12-15T18:09:45.804Z,128.20
2022-12-15T18:12:22.728Z,138.00
2022-12-15T18:14:51.323Z,126.10
2022-12-15T18:17:20.783Z,101.20
2022-12-15T18:19:49.396Z,122.20
2022-12-15T18:22:23.519Z,144.40
2022-12-15T18:24:53.928Z,132.90
2022-12-15T18:27:26.476Z,129.20
2022-12-15T18:29:56.790Z,119.50
2022-12-15T18:32:27.476Z,120.20
2022-12-15T18:34:56.109Z,114.40
2022-12-15T18:37:25.427Z,122.20
2022-12-15T18:39:57.144Z,128.80
2022-12-15T18:42:29.538Z,107.80
2022-12-15T18:45:00.481Z,120.10
2022-12-15T18:47:28.875Z,103.70
2022-12-15T18:49:57.093Z,115.50
2022-12-15T18:52:34.418Z,86.60
2022-12-15T18:55:03.341Z,108.30
2022-12-15T18:57:36.128Z,122.40
2022-12-15T19:02:37.136Z,99.30
2022-12-15T19:05:07.331Z,107.70
2022-12-15T19:07:36.186Z,97.40
2022-12-15T19:10:05.357Z,116.60
2022-12-15T19:12:34.430Z,97.70
2022-12-15T19:15:02.906Z,108.00
2022-12-15T19:17:49.809Z,110.50
2022-12-15T19:20:38.913Z,112.60
2022-12-15T19:23:08.009Z,104.40
2022-12-15T19:25:36.512Z,106.10
2022-12-15T19:28:10.529Z,116.20
2022-12-15T19:30:42.220Z,99.60
2022-12-15T19:33:15.202Z,112.70
2022-12-15T19:35:46.806Z,107.60
2022-12-15T19:38:28.358Z,87.00
2022-12-15T19:40:59.186Z,94.80
2022-12-15T19:43:27.674Z,91.70
2022-12-15T19:45:57.953Z,103.20
2022-12-15T19:48:26.442Z,98.80
2022-12-15T19:50:55.119Z,99.50
2022-12-15T19:53:25.675Z,96.50
2022-12-15T19:55:56.282Z,108.90
2022-12-15T19:58:28.943Z,96.90
2022-12-15T20:01:00.491Z,99.10
2022-12-15T20:03:33.103Z,117.60
2022-12-15T20:06:03.901Z,105.60
2022-12-15T20:08:37.680Z,117.30
2022-12-15T20:11:14.981Z,114.40
2022-12-15T20:13:43.878Z,116.70
2022-12-15T20:16:17.738Z,109.30
2022-12-15T20:18:48.769Z,132.40
2022-12-15T20:21:22.252Z,124.80
2022-12-15T20:24:07.884Z,130.70
2022-12-15T20:26:39.495Z,123.10
2022-12-15T20:29:26.213Z,129.40
2022-12-15T20:31:56.796Z,117.80
2022-12-15T20:34:25.902Z,112.70
2022-12-15T20:36:54.895Z,124.30
2022-12-15T20:39:29.584Z,121.30
2022-12-15T20:41:59.175Z,118.30
2022-12-15T20:44:27.994Z,111.00
2022-12-15T20:46:56.734Z,122.10
2022-12-15T20:49:25.160Z,114.10
2022-12-15T20:51:53.606Z,110.20
2022-12-15T20:54:22.900Z,113.30
2022-12-15T20:56:51.391Z,111.50
2022-12-15T20:59:20.166Z,109.30
2022-12-15T21:01:48.801Z,110.50
2022-12-15T21:04:27.592Z,99.10
2022-12-15T21:06:56.828Z,115.20
2022-12-15T21:09:25.538Z,110.30
2022-12-15T21:11:55.295Z,112.90
2022-12-15T21:14:24.889Z,116.90
2022-12-15T21:16:53.661Z,110.30
2022-12-15T21:19:22.991Z,103.80
2022-12-15T21:21:55.430Z,104.70
2022-12-15T21:24:27.270Z,99.30
2022-12-15T21:26:56.297Z,91.30
2022-12-15T21:29:27.880Z,102.90
2022-12-15T21:31:56.387Z,94.90
2022-12-15T21:34:24.705Z,99.40
2022-12-15T21:36:55.017Z,93.90
2022-12-15T21:39:31.176Z,100.70
2022-12-15T21:42:03.363Z,89.80
2022-12-15T21:44:31.817Z,103.20
2022-12-15T21:47:00.452Z,96.70
2022-12-15T21:49:29.294Z,105.40
2022-12-15T21:52:00.362Z,95.90
2022-12-15T21:54:35.005Z,90.30
2022-12-15T21:57:03.931Z,89.10
2022-12-15T21:59:33.331Z,90.10
2022-12-15T22:02:02.609Z,85.80
2022-12-15T22:04:34.554Z,90.80
2022-12-15T22:07:03.437Z,93.10
2022-12-15T22:09:31.972Z,93.30
2022-12-15T22:12:01.332Z,71.60
2022-12-15T22:14:34.382Z,84.10
2022-12-15T22:19:41.056Z,82.90
2022-12-15T22:22:09.451Z,90.90
2022-12-15T22:24:38.275Z,86.00
2022-12-15T22:27:17.958Z,83.90
2022-12-15T22:29:47.231Z,86.10
2022-12-15T22:32:17.439Z,85.70
2022-12-15T22:34:45.862Z,91.80
2022-12-15T22:37:14.425Z,82.20
2022-12-15T22:39:42.875Z,83.70
2022-12-15T22:42:16.966Z,93.20
2022-12-15T22:44:46.085Z,75.40
2022-12-15T22:47:14.914Z,75.90
2022-12-15T22:49:43.542Z,87.20
2022-12-15T22:52:20.621Z,86.40
2022-12-15T22:54:49.098Z,79.80
2022-12-15T22:57:26.183Z,89.70
2022-12-15T23:00:05.000Z,89.30
2022-12-15T23:02:37.001Z,80.80
2022-12-15T23:05:06.724Z,75.40
2022-12-15T23:07:35.764Z,89.30
2022-12-15T23:10:23.647Z,79.70
2022-12-15T23:12:54.875Z,94.20
2022-12-15T23:15:44.331Z,83.20
2022-12-15T23:18:13.663Z,88.50
2022-12-15T23:20:42.633Z,91.40
2022-12-15T23:23:11.122Z,89.90
2022-12-15T23:25:39.581Z,84.80
2022-12-15T23:28:08.344Z,80.30
2022-12-15T23:30:36.851Z,88.40
2022-12-15T23:33:05.718Z,95.80
2022-12-15T23:35:34.181Z,89.40
2022-12-15T23:38:03.076Z,82.30
2022-12-15T23:40:31.389Z,94.00
2022-12-15T23:43:00.753Z,80.40
2022-12-15T23:45:29.094Z,89.90
2022-12-15T23:47:57.556Z,95.10
2022-12-15T23:50:26.472Z,84.90
2022-12-15T23:52:54.906Z,84.70
2022-12-15T23:55:23.326Z,77.70
2022-12-15T23:57:51.936Z,90.50
